createdAt,value
2022-08-11T00:00:03.813Z,2.50
2022-08-11T00:02:53.445Z,3.22
2022-08-11T00:05:22.193Z,2.53
2022-08-11T00:07:54.583Z,3.00
2022-08-11T00:10:26.594Z,2.60
2022-08-11T00:12:56.770Z,2.97
2022-08-11T00:15:30.071Z,2.70
2022-08-11T00:17:59.603Z,2.88
2022-08-11T00:20:34.533Z,3.20
2022-08-11T00:23:10.834Z,3.33
2022-08-11T00:25:42.656Z,2.97
2022-08-11T00:28:28.821Z,3.30
2022-08-11T00:30:58.339Z,3.28
2022-08-11T00:33:44.949Z,3.47
2022-08-11T00:36:16.152Z,3.25
2022-08-11T00:38:45.503Z,3.10
2022-08-11T00:41:29.451Z,4.50
2022-08-11T00:43:59.923Z,3.10
2022-08-11T00:46:27.478Z,3.05
2022-08-11T00:49:11.929Z,3.17
2022-08-11T00:52:05.697Z,3.75
2022-08-11T00:54:39.989Z,3.53
2022-08-11T00:57:36.127Z,3.33
2022-08-11T01:00:14.829Z,3.58
2022-08-11T01:02:45.973Z,3.38
2022-08-11T01:05:16.759Z,3.15
2022-08-11T01:08:05.240Z,3.47
2022-08-11T01:10:45.820Z,3.17
2022-08-11T01:13:30.453Z,3.70
2022-08-11T01:16:13.138Z,3.47
2022-08-11T01:18:59.455Z,3.03
2022-08-11T01:21:45.828Z,3.72
2022-08-11T01:24:16.638Z,3.45
2022-08-11T01:26:56.163Z,3.22
2022-08-11T01:29:33.399Z,3.13
2022-08-11T01:32:09.938Z,3.20
2022-08-11T01:35:07.000Z,3.50
2022-08-11T01:37:49.684Z,3.33
2022-08-11T01:40:23.347Z,3.55
2022-08-11T01:43:29.057Z,3.80
2022-08-11T01:46:08.001Z,3.42
2022-08-11T01:48:35.592Z,3.60
2022-08-11T01:51:14.842Z,3.58
2022-08-11T01:54:03.403Z,4.60
2022-08-11T01:56:37.163Z,3.38
2022-08-11T01:59:07.471Z,4.15
2022-08-11T02:01:40.880Z,3.55
2022-08-11T02:04:08.442Z,4.13
2022-08-11T02:06:58.271Z,3.55
2022-08-11T02:09:49.689Z,3.80
2022-08-11T02:12:38.409Z,3.00
2022-08-11T02:15:15.110Z,3.40
2022-08-11T02:18:01.627Z,3.13
2022-08-11T02:21:16.934Z,3.65
2022-08-11T02:24:07.118Z,4.10
2022-08-11T02:26:49.640Z,3.80
2022-08-11T02:29:23.730Z,3.42
2022-08-11T02:32:24.779Z,3.47
2022-08-11T02:35:00.068Z,3.85
2022-08-11T02:37:34.003Z,4.00
2022-08-11T02:40:07.453Z,4.70
2022-08-11T02:42:40.920Z,4.15
2022-08-11T02:45:27.463Z,4.38
2022-08-11T02:48:19.691Z,4.00
2022-08-11T02:50:53.582Z,3.58
2022-08-11T02:53:30.108Z,3.50
2022-08-11T02:56:04.038Z,4.53
2022-08-11T02:59:12.701Z,4.35
2022-08-11T03:01:44.614Z,4.10
2022-08-11T03:04:16.703Z,4.30
2022-08-11T03:06:53.229Z,4.22
2022-08-11T03:09:24.605Z,4.57
2022-08-11T03:12:23.614Z,4.15
2022-08-11T03:15:20.959Z,3.95
2022-08-11T03:17:54.846Z,4.70
2022-08-11T03:20:42.249Z,4.28
2022-08-11T03:23:19.775Z,4.30
2022-08-11T03:26:07.074Z,5.05
2022-08-11T03:28:37.448Z,4.53
2022-08-11T03:31:19.281Z,4.15
2022-08-11T03:37:14.970Z,4.15
2022-08-11T03:39:51.141Z,5.10
2022-08-11T03:42:42.677Z,4.70
2022-08-11T03:45:16.565Z,4.50
2022-08-11T03:47:58.753Z,4.85
2022-08-11T03:50:45.019Z,3.90
2022-08-11T03:53:16.404Z,4.65
2022-08-11T03:55:47.496Z,8.35
2022-08-11T03:58:17.934Z,4.70
2022-08-11T04:00:45.668Z,4.45
2022-08-11T04:03:32.106Z,5.53
2022-08-11T04:06:02.833Z,4.65
2022-08-11T04:08:47.156Z,4.05
2022-08-11T04:11:33.636Z,3.90
2022-08-11T04:14:25.876Z,4.63
2022-08-11T04:17:08.950Z,26.27
2022-08-11T04:19:49.814Z,6.25
2022-08-11T04:22:29.443Z,4.87
2022-08-11T04:25:20.661Z,3.80
2022-08-11T04:27:48.345Z,3.92
2022-08-11T04:30:28.210Z,5.35
2022-08-11T04:33:12.549Z,3.90
2022-08-11T04:36:00.683Z,5.07
2022-08-11T04:38:46.843Z,4.63
2022-08-11T04:41:33.387Z,4.30
2022-08-11T04:44:14.911Z,3.53
2022-08-11T04:46:54.756Z,3.42
2022-08-11T04:49:59.991Z,3.33
2022-08-11T04:53:01.543Z,3.13
2022-08-11T04:56:06.636Z,3.40
2022-08-11T04:58:52.938Z,3.05
2022-08-11T05:01:41.701Z,3.35
2022-08-11T05:04:34.211Z,5.40
2022-08-11T05:07:10.944Z,5.00
2022-08-11T05:09:44.493Z,4.43
2022-08-11T05:12:15.298Z,4.25
2022-08-11T05:15:08.717Z,3.92
2022-08-11T05:18:18.645Z,4.47
2022-08-11T05:21:08.144Z,5.13
2022-08-11T05:23:57.900Z,4.22
2022-08-11T05:26:49.093Z,5.28
2022-08-11T05:29:54.412Z,4.20
2022-08-11T05:32:42.383Z,3.25
2022-08-11T05:35:10.635Z,3.03
2022-08-11T05:38:14.463Z,3.17
2022-08-11T05:41:10.056Z,3.00
2022-08-11T05:44:20.034Z,3.28
2022-08-11T05:47:07.170Z,4.32
2022-08-11T05:49:53.947Z,2.40
2022-08-11T05:52:42.165Z,3.40
2022-08-11T05:55:30.035Z,3.38
2022-08-11T05:58:00.246Z,3.25
2022-08-11T06:00:28.249Z,3.30
2022-08-11T06:02:57.179Z,3.10
2022-08-11T06:05:38.679Z,3.50
2022-08-11T06:08:12.741Z,3.50
2022-08-11T06:10:42.519Z,3.38
2022-08-11T06:13:10.886Z,3.05
2022-08-11T06:15:46.159Z,4.00
2022-08-11T06:18:14.628Z,3.78
2022-08-11T06:20:55.703Z,4.05
2022-08-11T06:23:25.156Z,3.05
2022-08-11T06:25:53.810Z,3.08
2022-08-11T06:28:34.054Z,3.15
2022-08-11T06:31:03.207Z,3.25
2022-08-11T06:33:44.008Z,3.92
2022-08-11T06:36:14.624Z,3.35
2022-08-11T06:38:42.375Z,3.30
2022-08-11T06:41:34.793Z,3.60
2022-08-11T06:44:05.986Z,2.78
2022-08-11T06:46:39.107Z,3.13
2022-08-11T06:49:31.220Z,3.00
2022-08-11T06:52:06.690Z,3.10
2022-08-11T06:54:42.912Z,3.22
2022-08-11T07:00:17.815Z,3.50
2022-08-11T07:02:52.792Z,4.20
2022-08-11T07:05:29.609Z,3.50
2022-08-11T07:08:33.858Z,4.45
2022-08-11T07:11:37.116Z,3.50
2022-08-11T07:14:24.032Z,3.58
2022-08-11T07:16:52.354Z,3.70
2022-08-11T07:19:46.619Z,3.15
2022-08-11T07:22:33.644Z,3.60
2022-08-11T07:25:35.907Z,3.10
2022-08-11T07:28:29.746Z,3.20
2022-08-11T07:31:01.525Z,3.53
2022-08-11T07:34:07.092Z,3.00
2022-08-11T07:36:23.720Z,3.65
2022-08-11T07:38:57.214Z,2.90
2022-08-11T07:41:25.621Z,2.97
2022-08-11T07:43:55.740Z,2.55
2022-08-11T07:46:42.649Z,2.00
2022-08-11T07:49:29.590Z,2.30
2022-08-11T07:52:16.324Z,2.30
2022-08-11T07:54:45.422Z,1.73
2022-08-11T07:57:56.985Z,1.80
2022-08-11T08:00:45.479Z,2.30
2022-08-11T08:03:38.501Z,1.70
2022-08-11T08:06:41.969Z,2.13
2022-08-11T08:09:28.595Z,2.00
2022-08-11T08:12:15.692Z,1.70
2022-08-11T08:15:02.363Z,2.08
2022-08-11T08:18:09.996Z,1.85
2022-08-11T08:20:40.969Z,1.83
2022-08-11T08:23:09.104Z,1.80
2022-08-11T08:25:38.827Z,1.70
2022-08-11T08:28:07.868Z,1.50
2022-08-11T08:30:47.619Z,1.45
2022-08-11T08:33:17.989Z,1.40
2022-08-11T08:38:22.635Z,1.40
2022-08-11T08:40:55.778Z,1.77
2022-08-11T08:43:24.853Z,1.10
2022-08-11T08:45:56.111Z,1.45
2022-08-11T08:48:25.472Z,1.30
2022-08-11T08:51:14.170Z,1.48
2022-08-11T08:53:52.359Z,1.40
2022-08-11T08:56:25.936Z,1.27
2022-08-11T08:58:53.614Z,0.90
2022-08-11T09:01:22.533Z,0.77
2022-08-11T09:04:07.076Z,1.08
2022-08-11T09:06:40.608Z,1.02
2022-08-11T09:09:09.047Z,0.98
2022-08-11T09:11:50.308Z,1.23
2022-08-11T09:14:19.184Z,1.30
2022-08-11T09:16:48.719Z,1.13
2022-08-11T09:19:18.044Z,1.00
2022-08-11T09:22:07.231Z,1.35
2022-08-11T09:24:54.452Z,1.05
2022-08-11T09:27:22.998Z,1.30
2022-08-11T09:29:51.281Z,1.30
2022-08-11T09:32:22.754Z,1.40
2022-08-11T09:34:52.114Z,1.42
2022-08-11T09:37:55.831Z,1.40
2022-08-11T09:40:31.374Z,0.95
2022-08-11T09:43:21.132Z,1.70
2022-08-11T09:45:51.675Z,1.48
2022-08-11T09:48:23.779Z,1.40
2022-08-11T09:50:52.840Z,1.30
2022-08-11T09:53:36.535Z,1.30
2022-08-11T09:56:37.836Z,1.17
2022-08-11T09:59:06.177Z,1.23
2022-08-11T10:01:54.144Z,1.33
2022-08-11T10:04:25.648Z,1.20
2022-08-11T10:07:04.454Z,1.60
2022-08-11T10:09:43.610Z,1.30
2022-08-11T10:12:17.502Z,1.13
2022-08-11T10:15:05.193Z,1.50
2022-08-11T10:17:34.844Z,1.48
2022-08-11T10:20:05.890Z,1.60
2022-08-11T10:22:53.877Z,1.15
2022-08-11T10:25:41.374Z,1.42
2022-08-11T10:28:30.452Z,1.35
2022-08-11T10:31:17.245Z,1.70
2022-08-11T10:34:01.556Z,1.50
2022-08-11T10:36:30.080Z,1.50
2022-08-11T10:38:58.865Z,1.70
2022-08-11T10:42:07.373Z,1.40
2022-08-11T10:44:37.279Z,1.60
2022-08-11T10:47:24.316Z,1.80
2022-08-11T10:50:11.672Z,1.92
2022-08-11T10:52:59.467Z,3.40
2022-08-11T10:55:45.882Z,2.17
2022-08-11T10:58:33.313Z,2.20
2022-08-11T11:01:01.461Z,2.10
2022-08-11T11:03:30.271Z,1.80
2022-08-11T11:06:29.449Z,2.08
2022-08-11T11:09:18.152Z,1.73
2022-08-11T11:12:10.441Z,1.90
2022-08-11T11:14:59.231Z,1.98
2022-08-11T11:17:49.960Z,1.90
2022-08-11T11:20:36.316Z,1.50
2022-08-11T11:23:13.277Z,1.55
2022-08-11T11:25:41.044Z,1.90
2022-08-11T11:28:27.431Z,1.40
2022-08-11T11:30:55.460Z,1.80
2022-08-11T11:33:35.029Z,1.83
2022-08-11T11:36:33.563Z,1.50
2022-08-11T11:39:01.765Z,1.95
2022-08-11T11:41:29.724Z,1.70
2022-08-11T11:43:57.665Z,1.50
2022-08-11T11:46:30.534Z,1.55
2022-08-11T11:49:00.304Z,1.38
2022-08-11T11:51:28.371Z,1.30
2022-08-11T11:53:56.243Z,1.52
2022-08-11T11:56:24.881Z,1.65
2022-08-11T11:59:12.384Z,2.25
2022-08-11T12:01:43.809Z,1.40
2022-08-11T12:04:18.307Z,1.60
2022-08-11T12:06:47.111Z,1.40
2022-08-11T12:09:20.978Z,1.50
2022-08-11T12:12:09.321Z,1.63
2022-08-11T12:14:37.195Z,1.48
2022-08-11T12:17:05.117Z,1.40
2022-08-11T12:19:51.583Z,1.60
2022-08-11T12:22:39.350Z,1.90
2022-08-11T12:25:26.262Z,1.45
2022-08-11T12:27:54.852Z,1.73
2022-08-11T12:30:22.491Z,1.70
2022-08-11T12:32:50.385Z,1.40
2022-08-11T12:35:18.236Z,1.58
2022-08-11T12:37:49.184Z,1.20
2022-08-11T12:41:12.061Z,1.70
2022-08-11T12:43:56.417Z,1.70
2022-08-11T12:46:35.503Z,1.52
2022-08-11T12:49:34.461Z,1.30
2022-08-11T12:52:14.013Z,1.25
2022-08-11T12:54:47.125Z,1.20
2022-08-11T12:57:36.546Z,0.95
2022-08-11T13:00:27.690Z,1.35
2022-08-11T13:03:14.732Z,1.05
2022-08-11T13:05:46.929Z,0.95
2022-08-11T13:08:15.618Z,1.00
2022-08-11T13:11:02.648Z,1.17
2022-08-11T13:13:54.701Z,1.00
2022-08-11T13:16:18.641Z,1.40
2022-08-11T13:18:46.971Z,1.38
2022-08-11T13:21:20.636Z,1.02
2022-08-11T13:24:00.895Z,1.30
2022-08-11T13:26:43.067Z,1.25
2022-08-11T13:29:23.830Z,1.67
2022-08-11T13:31:53.219Z,1.42
2022-08-11T13:34:21.995Z,0.90
2022-08-11T13:36:52.387Z,0.90
2022-08-11T13:39:21.366Z,1.05
2022-08-11T13:41:53.355Z,1.20
2022-08-11T13:44:25.642Z,0.90
2022-08-11T13:46:57.217Z,1.20
2022-08-11T13:49:25.179Z,1.48
2022-08-11T13:51:53.263Z,1.92
2022-08-11T13:54:26.091Z,2.50
2022-08-11T13:56:56.810Z,2.33
2022-08-11T13:59:30.342Z,1.50
2022-08-11T14:02:22.683Z,0.82
2022-08-11T14:05:11.485Z,0.80
2022-08-11T14:07:40.544Z,1.17
2022-08-11T14:10:10.465Z,0.85
2022-08-11T14:12:57.293Z,0.90
2022-08-11T14:15:29.703Z,1.08
2022-08-11T14:18:03.353Z,0.80
2022-08-11T14:20:54.340Z,0.82
2022-08-11T14:23:27.242Z,0.60
2022-08-11T14:26:16.865Z,0.80
2022-08-11T14:28:45.567Z,1.10
2022-08-11T14:31:15.076Z,0.90
2022-08-11T14:33:59.642Z,0.70
2022-08-11T14:36:31.228Z,0.77
2022-08-11T14:38:58.848Z,0.95
2022-08-11T14:42:10.831Z,0.73
2022-08-11T14:44:58.285Z,0.50
2022-08-11T14:47:26.517Z,1.00
2022-08-11T14:50:09.451Z,1.08
2022-08-11T14:52:42.069Z,1.00
2022-08-11T14:55:28.499Z,1.77
2022-08-11T14:57:57.134Z,0.80
2022-08-11T15:00:25.782Z,1.25
2022-08-11T15:03:11.840Z,1.08
2022-08-11T15:05:41.826Z,1.00
2022-08-11T15:08:44.107Z,1.13
2022-08-11T15:11:32.538Z,0.80
2022-08-11T15:14:01.873Z,1.00
2022-08-11T15:16:48.693Z,1.00
2022-08-11T15:19:17.049Z,0.80
2022-08-11T15:22:03.083Z,1.63
2022-08-11T15:24:31.256Z,1.40
2022-08-11T15:27:18.312Z,1.30
2022-08-11T15:30:05.572Z,1.30
2022-08-11T15:32:53.250Z,1.08
2022-08-11T15:35:39.920Z,1.10
2022-08-11T15:38:11.715Z,0.90
2022-08-11T15:43:50.417Z,1.25
2022-08-11T15:46:20.838Z,1.25
2022-08-11T15:48:51.599Z,1.80
2022-08-11T15:51:31.244Z,1.70
2022-08-11T15:54:00.249Z,1.45
2022-08-11T15:56:29.831Z,2.20
2022-08-11T15:59:41.959Z,1.75
2022-08-11T16:02:23.918Z,1.98
2022-08-11T16:04:52.239Z,2.20
2022-08-11T16:07:26.702Z,2.00
2022-08-11T16:10:04.039Z,2.20
2022-08-11T16:12:35.714Z,1.77
2022-08-11T16:15:23.811Z,1.77
2022-08-11T16:17:54.508Z,1.40
2022-08-11T16:20:25.189Z,1.60
2022-08-11T16:23:01.291Z,1.55
2022-08-11T16:27:01.927Z,1.40
2022-08-11T16:28:20.806Z,2.03
2022-08-11T16:30:49.377Z,2.05
2022-08-11T16:33:48.729Z,2.30
2022-08-11T16:36:25.003Z,1.65
2022-08-11T16:38:53.453Z,1.90
2022-08-11T16:41:41.776Z,1.90
2022-08-11T16:44:32.807Z,2.78
2022-08-11T16:47:11.113Z,1.52
2022-08-11T16:49:52.730Z,1.92
2022-08-11T16:52:21.983Z,2.40
2022-08-11T16:55:08.636Z,2.28
2022-08-11T16:57:56.120Z,1.90
2022-08-11T17:00:24.202Z,2.80
2022-08-11T17:03:12.584Z,4.47
2022-08-11T17:06:04.848Z,4.82
2022-08-11T17:08:57.862Z,3.15
2022-08-11T17:11:50.455Z,2.80
2022-08-11T17:14:35.427Z,2.60
2022-08-11T17:17:06.266Z,3.13
2022-08-11T17:20:41.623Z,3.10
2022-08-11T17:22:41.914Z,3.50
2022-08-11T17:25:11.157Z,3.13
2022-08-11T17:27:39.749Z,4.25
2022-08-11T17:30:08.546Z,4.10
2022-08-11T17:33:01.084Z,3.70
2022-08-11T17:35:34.308Z,3.40
2022-08-11T17:38:12.665Z,4.07
2022-08-11T17:41:02.110Z,3.50
2022-08-11T17:43:50.552Z,3.83
2022-08-11T17:46:37.736Z,3.65
2022-08-11T17:49:07.785Z,4.38
2022-08-11T17:51:55.232Z,4.70
2022-08-11T17:54:42.653Z,4.88
2022-08-11T17:57:30.142Z,4.70
2022-08-11T17:59:58.710Z,5.35
2022-08-11T18:02:48.239Z,4.75
2022-08-11T18:05:18.492Z,5.93
2022-08-11T18:08:05.713Z,6.40
2022-08-11T18:10:52.942Z,6.03
2022-08-11T18:13:40.846Z,6.07
2022-08-11T18:16:28.201Z,7.72
2022-08-11T18:19:15.335Z,6.75
2022-08-11T18:22:14.173Z,6.32
2022-08-11T18:25:04.466Z,7.18
2022-08-11T18:27:52.351Z,6.70
2022-08-11T18:30:39.345Z,7.60
2022-08-11T18:36:36.554Z,7.38
2022-08-11T18:39:25.874Z,7.30
2022-08-11T18:42:12.713Z,7.30
2022-08-11T18:45:07.047Z,7.82
2022-08-11T18:47:55.406Z,8.43
2022-08-11T18:50:43.844Z,8.48
2022-08-11T18:53:35.540Z,9.55
2022-08-11T18:56:22.114Z,8.55
2022-08-11T18:59:09.413Z,8.38
2022-08-11T19:01:56.481Z,8.82
2022-08-11T19:04:43.796Z,9.70
2022-08-11T19:07:31.087Z,7.75
2022-08-11T19:10:18.477Z,8.30
2022-08-11T19:13:06.265Z,7.25
2022-08-11T19:15:53.104Z,7.10
2022-08-11T19:18:40.840Z,8.20
2022-08-11T19:21:27.838Z,6.60
2022-08-11T19:24:17.237Z,6.28
2022-08-11T19:27:04.048Z,7.07
2022-08-11T19:30:04.672Z,6.20
2022-08-11T19:32:59.392Z,5.22
2022-08-11T19:35:46.369Z,5.85
2022-08-11T19:38:33.595Z,5.80
2022-08-11T19:41:51.729Z,4.93
2022-08-11T19:44:27.846Z,4.90
2022-08-11T19:47:15.697Z,6.05
2022-08-11T19:50:03.607Z,5.15
2022-08-11T19:52:50.958Z,5.80
2022-08-11T19:55:37.760Z,5.38
2022-08-11T19:58:27.568Z,4.78
2022-08-11T20:01:13.918Z,5.40
2022-08-11T20:04:00.656Z,5.65
2022-08-11T20:06:47.526Z,5.82
2022-08-11T20:10:04.974Z,7.03
2022-08-11T20:12:41.686Z,7.78
2022-08-11T20:15:32.139Z,7.45
2022-08-11T20:18:19.535Z,6.55
2022-08-11T20:21:24.864Z,5.97
2022-08-11T20:24:14.906Z,5.72
2022-08-11T20:27:02.107Z,5.40
2022-08-11T20:29:49.165Z,8.00
2022-08-11T20:32:36.823Z,6.07
2022-08-11T20:35:24.009Z,7.70
2022-08-11T20:38:13.796Z,5.15
2022-08-11T20:41:01.461Z,5.97
2022-08-11T20:44:07.019Z,6.97
2022-08-11T20:46:56.951Z,7.68
2022-08-11T20:52:54.103Z,6.55
2022-08-11T20:59:13.715Z,7.55
2022-08-11T21:01:56.348Z,10.13
2022-08-11T21:04:54.476Z,10.13
2022-08-11T21:07:43.249Z,11.02
2022-08-11T21:10:43.631Z,10.40
2022-08-11T21:13:34.345Z,9.98
2022-08-11T21:16:26.543Z,10.27
2022-08-11T21:19:16.756Z,10.15
2022-08-11T21:22:04.048Z,9.68
2022-08-11T21:24:52.817Z,10.20
2022-08-11T21:27:39.731Z,11.90
2022-08-11T21:30:26.678Z,10.13
2022-08-11T21:33:14.181Z,9.82
2022-08-11T21:36:01.611Z,9.25
2022-08-11T21:38:48.391Z,10.70
2022-08-11T21:41:35.432Z,8.77
2022-08-11T21:44:23.457Z,10.30
2022-08-11T21:47:10.909Z,8.65
2022-08-11T21:49:59.389Z,9.35
2022-08-11T21:52:47.082Z,8.38
2022-08-11T21:55:33.709Z,8.10
2022-08-11T21:58:20.726Z,7.90
2022-08-11T22:01:07.249Z,9.30
2022-08-11T22:03:54.443Z,8.43
2022-08-11T22:06:40.831Z,9.90
2022-08-11T22:09:27.332Z,11.38
2022-08-11T22:12:34.143Z,10.10
2022-08-11T22:15:20.737Z,10.40
2022-08-11T22:18:07.275Z,10.27
2022-08-11T22:20:54.127Z,11.75
2022-08-11T22:23:41.606Z,11.90
2022-08-11T22:26:29.435Z,12.45
2022-08-11T22:29:16.150Z,13.20
2022-08-11T22:32:03.036Z,12.32
2022-08-11T22:34:53.274Z,12.43
2022-08-11T22:37:41.062Z,18.92
2022-08-11T22:40:29.137Z,12.25
2022-08-11T22:43:15.592Z,12.68
2022-08-11T22:46:01.761Z,11.70
2022-08-11T22:48:49.715Z,11.30
2022-08-11T22:51:37.758Z,11.65
2022-08-11T22:54:24.823Z,10.52
2022-08-11T22:57:10.989Z,10.48
2022-08-11T22:59:58.528Z,10.73
2022-08-11T23:02:46.588Z,12.43
2022-08-11T23:05:34.063Z,12.57
2022-08-11T23:08:20.546Z,13.85
2022-08-11T23:11:08.059Z,15.45
2022-08-11T23:13:54.678Z,16.60
2022-08-11T23:16:41.335Z,17.77
2022-08-11T23:20:07.421Z,23.65
2022-08-11T23:22:49.092Z,16.67
2022-08-11T23:25:36.835Z,10.80
2022-08-11T23:28:24.806Z,7.88
2022-08-11T23:31:12.983Z,8.63
2022-08-11T23:34:01.513Z,8.60
2022-08-11T23:36:48.123Z,8.43
2022-08-11T23:39:35.379Z,10.38
2022-08-11T23:42:22.985Z,10.88
2022-08-11T23:45:11.022Z,10.40
2022-08-11T23:48:17.309Z,11.07
2022-08-11T23:51:04.214Z,10.57
2022-08-11T23:53:50.710Z,10.55
2022-08-11T23:56:37.696Z,8.85
2022-08-11T23:59:24.150Z,9.60
